Terminal Aerodrome Forecast
Issued by NWS Sterling, VA

Current Version | Previous Version | Text Only | Print | Product List | Glossary Off
Versions: 1 2 3 4 5 6 7 8 9 10 11 12 13 14 15 16 17

000
FTUS41 KLWX 240700 AAA
TAFDCA
TAF AMD
KDCA 240708Z 2407/2506 00000KT 2SM -RA BR OVC009
     FM241300 00000KT 1SM RA BR OVC005
     FM241500 15004KT 3SM RA BR OVC005 WS020/19045KT
     FM242100 17007KT 1SM RA OVC008
     FM242300 17009KT 3SM SHRA OVC015
     FM250200 19012KT 3SM SHRA OVC015
     FM250500 22012KT 4SM -SHRA OVC090=

USA.gov is the U.S. government's official web portal to all federal, state and local government web resources and services.